sensor_id;sensor_type;location;lat;lon;timestamp;pressure;altitude;pressure_sealevel;temperature;humidity
59154;BME280;44935;48.944;9.418;2023-12-20T00:01:01;98699.57;;;5.49;51.46
59154;BME280;44935;48.944;9.418;2023-12-20T00:03:27;98697.00;;;6.66;49.90
59154;BME280;44935;48.944;9.418;2023-12-20T00:05:54;98693.43;;;7.30;48.65
59154;BME280;44935;48.944;9.418;2023-12-20T00:08:21;98690.74;;;5.20;52.21
59154;BME280;44935;48.944;9.418;2023-12-20T00:10:48;98694.47;;;6.83;49.81
59154;BME280;44935;48.944;9.418;2023-12-20T00:13:15;98699.58;;;7.06;49.28
59154;BME280;44935;48.944;9.418;2023-12-20T00:15:43;98700.39;;;7.24;48.42
59154;BME280;44935;48.944;9.418;2023-12-20T00:18:10;98698.30;;;7.14;48.36
59154;BME280;44935;48.944;9.418;2023-12-20T00:20:37;98690.41;;;6.74;49.44
59154;BME280;44935;48.944;9.418;2023-12-20T00:23:06;98688.11;;;6.20;51.16
59154;BME280;44935;48.944;9.418;2023-12-20T00:25:33;98674.34;;;6.79;50.08
59154;BME280;44935;48.944;9.418;2023-12-20T00:28:00;98672.54;;;6.41;50.88
59154;BME280;44935;48.944;9.418;2023-12-20T00:30:27;98659.45;;;3.67;56.05
59154;BME280;44935;48.944;9.418;2023-12-20T00:32:56;98676.52;;;5.83;52.26
59154;BME280;44935;48.944;9.418;2023-12-20T00:35:23;98666.95;;;5.63;52.29
59154;BME280;44935;48.944;9.418;2023-12-20T00:37:50;98667.29;;;6.30;51.05
59154;BME280;44935;48.944;9.418;2023-12-20T00:40:17;98673.66;;;6.49;50.10
59154;BME280;44935;48.944;9.418;2023-12-20T00:42:44;98659.56;;;5.18;54.04
59154;BME280;44935;48.944;9.418;2023-12-20T00:45:11;98670.06;;;6.07;52.32
59154;BME280;44935;48.944;9.418;2023-12-20T00:47:38;98661.65;;;5.36;54.17
59154;BME280;44935;48.944;9.418;2023-12-20T00:50:06;98662.17;;;6.70;51.29
59154;BME280;44935;48.944;9.418;2023-12-20T00:52:33;98659.09;;;6.64;50.69
59154;BME280;44935;48.944;9.418;2023-12-20T00:55:01;98647.27;;;5.91;52.95
59154;BME280;44935;48.944;9.418;2023-12-20T00:57:27;98656.72;;;6.54;51.00
59154;BME280;44935;48.944;9.418;2023-12-20T00:59:54;98661.25;;;6.56;51.33
59154;BME280;44935;48.944;9.418;2023-12-20T01:02:22;98649.32;;;3.92;55.60
59154;BME280;44935;48.944;9.418;2023-12-20T01:04:49;98672.00;;;5.58;53.59
59154;BME280;44935;48.944;9.418;2023-12-20T01:07:17;98666.28;;;5.44;54.06
59154;BME280;44935;48.944;9.418;2023-12-20T01:09:43;98666.11;;;6.36;51.46
59154;BME280;44935;48.944;9.418;2023-12-20T01:12:10;98666.24;;;6.33;51.49
59154;BME280;44935;48.944;9.418;2023-12-20T01:14:37;98659.42;;;6.66;51.04
59154;BME280;44935;48.944;9.418;2023-12-20T01:17:04;98671.84;;;7.08;50.10
59154;BME280;44935;48.944;9.418;2023-12-20T01:19:31;98669.61;;;6.96;50.37
59154;BME280;44935;48.944;9.418;2023-12-20T01:21:58;98667.69;;;7.06;50.19
59154;BME280;44935;48.944;9.418;2023-12-20T01:24:25;98670.05;;;7.59;49.48
59154;BME280;44935;48.944;9.418;2023-12-20T01:26:52;98656.70;;;4.92;53.87
59154;BME280;44935;48.944;9.418;2023-12-20T01:29:19;98663.77;;;6.43;51.98
59154;BME280;44935;48.944;9.418;2023-12-20T01:31:45;98673.50;;;6.70;50.86
59154;BME280;44935;48.944;9.418;2023-12-20T01:34:12;98666.35;;;6.18;51.77
59154;BME280;44935;48.944;9.418;2023-12-20T01:36:39;98669.14;;;7.58;49.47
59154;BME280;44935;48.944;9.418;2023-12-20T01:39:06;98679.06;;;6.98;50.07
59154;BME280;44935;48.944;9.418;2023-12-20T01:41:33;98683.47;;;6.82;50.92
59154;BME280;44935;48.944;9.418;2023-12-20T01:44:00;98685.75;;;6.59;50.72
59154;BME280;44935;48.944;9.418;2023-12-20T01:46:27;98682.27;;;6.53;51.90
59154;BME280;44935;48.944;9.418;2023-12-20T01:48:54;98681.50;;;5.75;53.40
59154;BME280;44935;48.944;9.418;2023-12-20T01:51:21;98673.73;;;3.99;56.85
59154;BME280;44935;48.944;9.418;2023-12-20T01:53:49;98668.54;;;5.21;55.32
59154;BME280;44935;48.944;9.418;2023-12-20T01:56:16;98672.30;;;5.38;54.72
59154;BME280;44935;48.944;9.418;2023-12-20T01:58:45;98669.49;;;6.02;53.37
59154;BME280;44935;48.944;9.418;2023-12-20T02:01:13;98668.28;;;6.39;52.42
59154;BME280;44935;48.944;9.418;2023-12-20T02:03:41;98674.78;;;6.65;51.89
59154;BME280;44935;48.944;9.418;2023-12-20T02:06:09;98673.07;;;6.22;52.49
59154;BME280;44935;48.944;9.418;2023-12-20T02:08:36;98664.51;;;6.53;52.31
59154;BME280;44935;48.944;9.418;2023-12-20T02:11:03;98664.77;;;6.04;53.18
59154;BME280;44935;48.944;9.418;2023-12-20T02:13:31;98663.47;;;6.25;53.29
59154;BME280;44935;48.944;9.418;2023-12-20T02:15:57;98663.74;;;6.16;53.07
59154;BME280;44935;48.944;9.418;2023-12-20T02:18:24;98660.38;;;6.41;52.64
59154;BME280;44935;48.944;9.418;2023-12-20T02:20:51;98657.29;;;6.31;52.48
59154;BME280;44935;48.944;9.418;2023-12-20T02:23:18;98664.22;;;6.36;52.25
59154;BME280;44935;48.944;9.418;2023-12-20T02:25:45;98661.96;;;6.47;52.46
59154;BME280;44935;48.944;9.418;2023-12-20T02:28:12;98661.42;;;6.43;52.19
59154;BME280;44935;48.944;9.418;2023-12-20T02:30:40;98659.40;;;6.28;52.34
59154;BME280;44935;48.944;9.418;2023-12-20T02:33:08;98663.91;;;6.14;52.50
59154;BME280;44935;48.944;9.418;2023-12-20T02:35:37;98659.32;;;6.38;52.48
59154;BME280;44935;48.944;9.418;2023-12-20T02:38:04;98659.02;;;6.56;52.60
59154;BME280;44935;48.944;9.418;2023-12-20T02:40:31;98662.92;;;5.93;53.38
59154;BME280;44935;48.944;9.418;2023-12-20T02:42:58;98662.38;;;6.03;53.29
59154;BME280;44935;48.944;9.418;2023-12-20T02:45:25;98665.18;;;6.04;53.30
59154;BME280;44935;48.944;9.418;2023-12-20T02:47:53;98661.12;;;6.15;53.09
59154;BME280;44935;48.944;9.418;2023-12-20T02:50:20;98660.17;;;6.09;53.23
59154;BME280;44935;48.944;9.418;2023-12-20T02:52:46;98658.27;;;6.45;53.12
59154;BME280;44935;48.944;9.418;2023-12-20T02:55:13;98659.16;;;6.44;52.85
59154;BME280;44935;48.944;9.418;2023-12-20T02:57:40;98661.57;;;6.16;53.68
59154;BME280;44935;48.944;9.418;2023-12-20T03:00:08;98662.22;;;5.80;55.45
59154;BME280;44935;48.944;9.418;2023-12-20T03:02:36;98658.73;;;5.58;56.40
59154;BME280;44935;48.944;9.418;2023-12-20T03:05:03;98664.58;;;5.80;56.08
59154;BME280;44935;48.944;9.418;2023-12-20T03:07:30;98666.00;;;5.69;56.32
59154;BME280;44935;48.944;9.418;2023-12-20T03:09:57;98665.32;;;5.97;55.23
59154;BME280;44935;48.944;9.418;2023-12-20T03:12:24;98667.18;;;5.80;55.74
59154;BME280;44935;48.944;9.418;2023-12-20T03:14:51;98671.47;;;5.42;57.94
59154;BME280;44935;48.944;9.418;2023-12-20T03:17:18;98673.11;;;5.28;58.87
59154;BME280;44935;48.944;9.418;2023-12-20T03:19:45;98675.97;;;5.47;57.83
59154;BME280;44935;48.944;9.418;2023-12-20T03:22:11;98679.92;;;5.40;58.47
59154;BME280;44935;48.944;9.418;2023-12-20T03:24:39;98679.75;;;5.28;58.79
59154;BME280;44935;48.944;9.418;2023-12-20T03:27:06;98683.78;;;5.07;59.29
59154;BME280;44935;48.944;9.418;2023-12-20T03:29:33;98688.67;;;5.44;58.69
59154;BME280;44935;48.944;9.418;2023-12-20T03:32:00;98686.13;;;4.98;60.26
59154;BME280;44935;48.944;9.418;2023-12-20T03:34:26;98690.93;;;5.10;59.85
59154;BME280;44935;48.944;9.418;2023-12-20T03:36:53;98688.03;;;4.53;61.88
59154;BME280;44935;48.944;9.418;2023-12-20T03:39:20;98684.42;;;4.98;60.74
59154;BME280;44935;48.944;9.418;2023-12-20T03:41:47;98685.22;;;5.63;58.56
59154;BME280;44935;48.944;9.418;2023-12-20T03:44:14;98683.77;;;5.58;58.74
59154;BME280;44935;48.944;9.418;2023-12-20T03:46:41;98681.11;;;6.06;58.53
59154;BME280;44935;48.944;9.418;2023-12-20T03:49:08;98684.16;;;4.94;60.21
59154;BME280;44935;48.944;9.418;2023-12-20T03:51:34;98688.39;;;5.39;59.72
59154;BME280;44935;48.944;9.418;2023-12-20T03:54:01;98689.63;;;4.96;60.31
59154;BME280;44935;48.944;9.418;2023-12-20T03:56:28;98690.53;;;5.08;59.61
59154;BME280;44935;48.944;9.418;2023-12-20T03:58:55;98690.74;;;4.60;61.70
59154;BME280;44935;48.944;9.418;2023-12-20T04:01:22;98683.84;;;5.17;60.85
59154;BME280;44935;48.944;9.418;2023-12-20T04:03:49;98684.23;;;4.76;61.46
59154;BME280;44935;48.944;9.418;2023-12-20T04:06:17;98688.82;;;4.68;61.92
59154;BME280;44935;48.944;9.418;2023-12-20T04:08:43;98689.83;;;4.13;63.29
59154;BME280;44935;48.944;9.418;2023-12-20T04:11:10;98690.80;;;3.76;63.65
59154;BME280;44935;48.944;9.418;2023-12-20T04:13:37;98691.77;;;3.86;64.92
59154;BME280;44935;48.944;9.418;2023-12-20T04:16:04;98687.42;;;3.97;63.72
59154;BME280;44935;48.944;9.418;2023-12-20T04:18:32;98685.11;;;4.73;61.91
59154;BME280;44935;48.944;9.418;2023-12-20T04:20:58;98684.61;;;5.02;61.30
59154;BME280;44935;48.944;9.418;2023-12-20T04:23:25;98683.58;;;5.14;60.01
59154;BME280;44935;48.944;9.418;2023-12-20T04:25:53;98690.25;;;5.00;60.60
59154;BME280;44935;48.944;9.418;2023-12-20T04:28:20;98691.19;;;4.37;61.65
59154;BME280;44935;48.944;9.418;2023-12-20T04:30:47;98691.30;;;5.18;60.37
59154;BME280;44935;48.944;9.418;2023-12-20T04:33:14;98711.84;;;4.58;61.51
59154;BME280;44935;48.944;9.418;2023-12-20T04:35:40;98714.28;;;4.04;62.46
59154;BME280;44935;48.944;9.418;2023-12-20T04:38:07;98710.18;;;4.07;62.26
59154;BME280;44935;48.944;9.418;2023-12-20T04:40:34;98706.00;;;3.94;62.72
59154;BME280;44935;48.944;9.418;2023-12-20T04:43:01;98729.26;;;4.06;63.15
59154;BME280;44935;48.944;9.418;2023-12-20T04:45:28;98730.43;;;4.02;63.59
59154;BME280;44935;48.944;9.418;2023-12-20T04:47:55;98720.49;;;4.69;62.08
59154;BME280;44935;48.944;9.418;2023-12-20T04:50:23;98712.28;;;4.33;62.60
59154;BME280;44935;48.944;9.418;2023-12-20T04:52:50;98714.34;;;4.31;61.88
59154;BME280;44935;48.944;9.418;2023-12-20T04:55:18;98723.23;;;4.26;62.34
59154;BME280;44935;48.944;9.418;2023-12-20T04:57:45;98725.59;;;4.06;63.36
59154;BME280;44935;48.944;9.418;2023-12-20T05:00:12;98724.03;;;4.26;62.83
59154;BME280;44935;48.944;9.418;2023-12-20T05:02:40;98727.99;;;3.85;63.55
59154;BME280;44935;48.944;9.418;2023-12-20T05:05:07;98725.62;;;4.53;61.94
59154;BME280;44935;48.944;9.418;2023-12-20T05:07:34;98728.43;;;3.97;63.34
59154;BME280;44935;48.944;9.418;2023-12-20T05:10:01;98719.40;;;4.32;63.28
59154;BME280;44935;48.944;9.418;2023-12-20T05:12:29;98720.88;;;4.48;62.57
59154;BME280;44935;48.944;9.418;2023-12-20T05:14:55;98722.14;;;4.71;61.52
59154;BME280;44935;48.944;9.418;2023-12-20T05:17:22;98728.98;;;5.05;61.59
59154;BME280;44935;48.944;9.418;2023-12-20T05:19:49;98741.23;;;4.85;61.37
59154;BME280;44935;48.944;9.418;2023-12-20T05:22:16;98741.55;;;4.55;61.22
59154;BME280;44935;48.944;9.418;2023-12-20T05:24:43;98734.83;;;5.32;59.41
59154;BME280;44935;48.944;9.418;2023-12-20T05:27:10;98737.13;;;4.78;60.14
59154;BME280;44935;48.944;9.418;2023-12-20T05:29:37;98739.79;;;5.33;60.58
59154;BME280;44935;48.944;9.418;2023-12-20T05:32:04;98741.86;;;5.05;60.48
59154;BME280;44935;48.944;9.418;2023-12-20T05:34:31;98748.78;;;4.68;61.79
59154;BME280;44935;48.944;9.418;2023-12-20T05:36:58;98745.36;;;4.77;61.52
59154;BME280;44935;48.944;9.418;2023-12-20T05:39:25;98746.75;;;4.96;61.55
59154;BME280;44935;48.944;9.418;2023-12-20T05:41:52;98754.18;;;5.70;60.17
59154;BME280;44935;48.944;9.418;2023-12-20T05:44:19;98755.20;;;5.05;60.81
59154;BME280;44935;48.944;9.418;2023-12-20T05:46:46;98754.75;;;4.15;62.34
59154;BME280;44935;48.944;9.418;2023-12-20T05:49:13;98759.93;;;4.74;62.48
59154;BME280;44935;48.944;9.418;2023-12-20T05:51:39;98767.50;;;5.16;61.79
59154;BME280;44935;48.944;9.418;2023-12-20T05:54:08;98771.08;;;5.30;61.51
59154;BME280;44935;48.944;9.418;2023-12-20T05:56:36;98773.23;;;5.23;61.65
59154;BME280;44935;48.944;9.418;2023-12-20T05:59:03;98778.29;;;4.79;62.13
59154;BME280;44935;48.944;9.418;2023-12-20T06:01:29;98785.44;;;5.09;60.87
59154;BME280;44935;48.944;9.418;2023-12-20T06:03:56;98796.63;;;3.95;65.65
59154;BME280;44935;48.944;9.418;2023-12-20T06:06:23;98799.28;;;4.13;64.68
59154;BME280;44935;48.944;9.418;2023-12-20T06:08:50;98796.82;;;4.81;63.23
59154;BME280;44935;48.944;9.418;2023-12-20T06:11:17;98801.95;;;3.83;66.44
59154;BME280;44935;48.944;9.418;2023-12-20T06:13:44;98801.50;;;4.04;66.00
59154;BME280;44935;48.944;9.418;2023-12-20T06:16:11;98803.63;;;4.17;65.48
59154;BME280;44935;48.944;9.418;2023-12-20T06:18:38;98803.34;;;4.16;65.96
59154;BME280;44935;48.944;9.418;2023-12-20T06:21:05;98794.59;;;4.26;64.92
59154;BME280;44935;48.944;9.418;2023-12-20T06:23:32;98795.95;;;4.53;64.06
59154;BME280;44935;48.944;9.418;2023-12-20T06:25:59;98798.27;;;4.33;64.70
59154;BME280;44935;48.944;9.418;2023-12-20T06:28:26;98798.46;;;4.48;64.47
59154;BME280;44935;48.944;9.418;2023-12-20T06:30:53;98801.87;;;4.70;64.73
59154;BME280;44935;48.944;9.418;2023-12-20T06:33:20;98808.34;;;4.53;64.49
59154;BME280;44935;48.944;9.418;2023-12-20T06:35:47;98808.85;;;4.77;64.16
59154;BME280;44935;48.944;9.418;2023-12-20T06:38:14;98813.28;;;4.63;64.39
59154;BME280;44935;48.944;9.418;2023-12-20T06:40:41;98808.43;;;4.82;64.36
59154;BME280;44935;48.944;9.418;2023-12-20T06:43:08;98812.19;;;4.25;65.43
59154;BME280;44935;48.944;9.418;2023-12-20T06:45:35;98812.30;;;4.37;65.12
59154;BME280;44935;48.944;9.418;2023-12-20T06:48:02;98819.01;;;4.08;65.89
59154;BME280;44935;48.944;9.418;2023-12-20T06:50:28;98818.45;;;4.65;65.14
59154;BME280;44935;48.944;9.418;2023-12-20T06:52:55;98819.77;;;4.30;65.29
59154;BME280;44935;48.944;9.418;2023-12-20T06:55:22;98823.01;;;3.84;66.68
59154;BME280;44935;48.944;9.418;2023-12-20T06:57:49;98825.91;;;4.53;65.58
59154;BME280;44935;48.944;9.418;2023-12-20T07:00:17;98829.50;;;4.43;65.47
59154;BME280;44935;48.944;9.418;2023-12-20T07:02:44;98839.02;;;3.89;65.91
59154;BME280;44935;48.944;9.418;2023-12-20T07:05:10;98832.56;;;4.14;65.82
59154;BME280;44935;48.944;9.418;2023-12-20T07:07:37;98840.69;;;4.50;64.95
59154;BME280;44935;48.944;9.418;2023-12-20T07:10:04;98842.79;;;4.63;65.17
59154;BME280;44935;48.944;9.418;2023-12-20T07:12:32;98839.18;;;4.55;64.71
59154;BME280;44935;48.944;9.418;2023-12-20T07:14:59;98840.96;;;4.55;65.22
59154;BME280;44935;48.944;9.418;2023-12-20T07:17:26;98844.79;;;3.81;66.94
59154;BME280;44935;48.944;9.418;2023-12-20T07:19:52;98848.64;;;3.89;67.09
59154;BME280;44935;48.944;9.418;2023-12-20T07:22:19;98856.84;;;4.13;66.48
59154;BME280;44935;48.944;9.418;2023-12-20T07:24:46;98863.27;;;3.89;67.48
59154;BME280;44935;48.944;9.418;2023-12-20T07:27:13;98872.41;;;3.72;67.44
59154;BME280;44935;48.944;9.418;2023-12-20T07:29:40;98877.75;;;4.55;65.46
59154;BME280;44935;48.944;9.418;2023-12-20T07:32:07;98875.48;;;5.09;64.20
59154;BME280;44935;48.944;9.418;2023-12-20T07:34:34;98878.42;;;4.16;64.93
59154;BME280;44935;48.944;9.418;2023-12-20T07:37:01;98881.34;;;4.81;64.19
59154;BME280;44935;48.944;9.418;2023-12-20T07:39:27;98888.42;;;4.73;64.20
59154;BME280;44935;48.944;9.418;2023-12-20T07:41:54;98887.84;;;3.89;68.02
59154;BME280;44935;48.944;9.418;2023-12-20T07:44:21;98884.62;;;3.49;69.02
59154;BME280;44935;48.944;9.418;2023-12-20T07:46:48;98893.06;;;3.73;67.65
59154;BME280;44935;48.944;9.418;2023-12-20T07:49:16;98896.54;;;3.92;67.10
59154;BME280;44935;48.944;9.418;2023-12-20T07:51:43;98891.71;;;3.48;68.20
59154;BME280;44935;48.944;9.418;2023-12-20T07:54:10;98895.71;;;3.64;68.62
59154;BME280;44935;48.944;9.418;2023-12-20T07:56:36;98892.06;;;3.91;67.65
59154;BME280;44935;48.944;9.418;2023-12-20T07:59:03;98901.51;;;4.14;66.25
59154;BME280;44935;48.944;9.418;2023-12-20T08:01:30;98905.64;;;4.39;64.95
59154;BME280;44935;48.944;9.418;2023-12-20T08:03:57;98899.48;;;4.53;63.97
59154;BME280;44935;48.944;9.418;2023-12-20T08:06:24;98899.00;;;4.65;63.56
59154;BME280;44935;48.944;9.418;2023-12-20T08:08:51;98903.77;;;4.62;63.71
59154;BME280;44935;48.944;9.418;2023-12-20T08:11:18;98903.83;;;4.80;63.62
59154;BME280;44935;48.944;9.418;2023-12-20T08:13:44;98906.78;;;4.45;63.77
59154;BME280;44935;48.944;9.418;2023-12-20T08:16:11;98907.00;;;4.40;63.76
59154;BME280;44935;48.944;9.418;2023-12-20T08:18:38;98913.78;;;3.95;65.90
59154;BME280;44935;48.944;9.418;2023-12-20T08:21:06;98923.38;;;4.46;65.00
59154;BME280;44935;48.944;9.418;2023-12-20T08:23:33;98928.17;;;4.86;63.74
59154;BME280;44935;48.944;9.418;2023-12-20T08:26:04;98926.65;;;4.79;63.22
59154;BME280;44935;48.944;9.418;2023-12-20T08:28:31;98931.52;;;4.31;64.35
59154;BME280;44935;48.944;9.418;2023-12-20T08:30:58;98933.38;;;4.69;63.42
59154;BME280;44935;48.944;9.418;2023-12-20T08:33:25;98935.94;;;4.85;63.23
59154;BME280;44935;48.944;9.418;2023-12-20T08:35:52;98937.82;;;4.48;62.64
59154;BME280;44935;48.944;9.418;2023-12-20T08:38:19;98938.79;;;4.31;63.29
59154;BME280;44935;48.944;9.418;2023-12-20T08:40:46;98940.00;;;5.26;61.26
59154;BME280;44935;48.944;9.418;2023-12-20T08:43:14;98936.31;;;5.80;59.11
59154;BME280;44935;48.944;9.418;2023-12-20T08:45:41;98940.92;;;6.10;58.22
59154;BME280;44935;48.944;9.418;2023-12-20T08:48:07;98948.42;;;5.31;59.95
59154;BME280;44935;48.944;9.418;2023-12-20T08:50:34;98943.61;;;5.59;59.04
59154;BME280;44935;48.944;9.418;2023-12-20T08:53:01;98944.91;;;5.92;57.86
59154;BME280;44935;48.944;9.418;2023-12-20T08:55:28;98935.91;;;5.67;58.77
59154;BME280;44935;48.944;9.418;2023-12-20T08:57:55;98939.81;;;5.76;58.36
59154;BME280;44935;48.944;9.418;2023-12-20T09:00:22;98941.48;;;5.11;60.16
59154;BME280;44935;48.944;9.418;2023-12-20T09:02:49;98943.97;;;5.43;59.48
59154;BME280;44935;48.944;9.418;2023-12-20T09:05:16;98939.28;;;4.80;59.92
59154;BME280;44935;48.944;9.418;2023-12-20T09:07:43;98933.40;;;5.13;60.85
59154;BME280;44935;48.944;9.418;2023-12-20T09:10:09;98932.53;;;5.01;61.28
59154;BME280;44935;48.944;9.418;2023-12-20T09:12:36;98928.07;;;5.54;59.65
59154;BME280;44935;48.944;9.418;2023-12-20T09:15:04;98926.74;;;5.45;58.66
59154;BME280;44935;48.944;9.418;2023-12-20T09:17:31;98933.33;;;5.05;60.16
59154;BME280;44935;48.944;9.418;2023-12-20T09:19:58;98934.35;;;5.28;60.86
59154;BME280;44935;48.944;9.418;2023-12-20T09:22:24;98933.68;;;4.44;60.96
59154;BME280;44935;48.944;9.418;2023-12-20T09:24:51;98933.56;;;4.28;62.28
59154;BME280;44935;48.944;9.418;2023-12-20T09:27:18;98936.76;;;4.77;60.81
59154;BME280;44935;48.944;9.418;2023-12-20T09:29:45;98941.15;;;5.06;60.61
59154;BME280;44935;48.944;9.418;2023-12-20T09:32:12;98946.48;;;4.98;59.76
59154;BME280;44935;48.944;9.418;2023-12-20T09:34:39;98939.30;;;4.22;62.61
59154;BME280;44935;48.944;9.418;2023-12-20T09:37:06;98937.37;;;4.16;61.57
59154;BME280;44935;48.944;9.418;2023-12-20T09:39:34;98944.24;;;4.46;61.69
59154;BME280;44935;48.944;9.418;2023-12-20T09:42:02;98947.06;;;3.89;62.42
59154;BME280;44935;48.944;9.418;2023-12-20T09:44:30;98950.20;;;4.70;61.04
59154;BME280;44935;48.944;9.418;2023-12-20T09:46:58;98952.96;;;5.19;58.93
59154;BME280;44935;48.944;9.418;2023-12-20T09:49:25;98956.71;;;5.49;58.38
59154;BME280;44935;48.944;9.418;2023-12-20T09:51:54;98959.62;;;4.79;59.12
59154;BME280;44935;48.944;9.418;2023-12-20T09:54:23;98960.64;;;4.94;59.71
59154;BME280;44935;48.944;9.418;2023-12-20T09:56:50;98961.77;;;5.10;60.27
59154;BME280;44935;48.944;9.418;2023-12-20T09:59:17;98962.68;;;4.98;59.46
59154;BME280;44935;48.944;9.418;2023-12-20T10:01:45;98958.33;;;4.97;58.80
59154;BME280;44935;48.944;9.418;2023-12-20T10:04:12;98964.24;;;5.42;58.51
59154;BME280;44935;48.944;9.418;2023-12-20T10:06:40;98959.54;;;5.58;57.30
59154;BME280;44935;48.944;9.418;2023-12-20T10:09:07;98960.76;;;4.78;58.79
59154;BME280;44935;48.944;9.418;2023-12-20T10:11:35;98954.97;;;4.82;59.09
59154;BME280;44935;48.944;9.418;2023-12-20T10:14:03;98952.65;;;4.98;57.18
59154;BME280;44935;48.944;9.418;2023-12-20T10:16:30;98953.60;;;5.46;57.04
59154;BME280;44935;48.944;9.418;2023-12-20T10:18:59;98950.45;;;5.27;57.98
59154;BME280;44935;48.944;9.418;2023-12-20T10:21:27;98948.77;;;5.50;57.20
59154;BME280;44935;48.944;9.418;2023-12-20T10:23:55;98945.10;;;5.30;56.30
59154;BME280;44935;48.944;9.418;2023-12-20T10:26:23;98949.72;;;5.19;55.64
59154;BME280;44935;48.944;9.418;2023-12-20T10:28:50;98935.97;;;3.91;58.48
59154;BME280;44935;48.944;9.418;2023-12-20T10:31:34;98930.78;;;3.70;58.39
59154;BME280;44935;48.944;9.418;2023-12-20T10:34:02;98922.08;;;3.15;60.95
59154;BME280;44935;48.944;9.418;2023-12-20T10:36:30;98928.69;;;3.48;59.49
59154;BME280;44935;48.944;9.418;2023-12-20T10:38:58;98928.10;;;3.93;59.12
59154;BME280;44935;48.944;9.418;2023-12-20T10:41:28;98930.41;;;3.06;59.63
59154;BME280;44935;48.944;9.418;2023-12-20T10:43:58;98926.74;;;3.65;59.50
59154;BME280;44935;48.944;9.418;2023-12-20T10:46:27;98925.61;;;4.02;57.58
59154;BME280;44935;48.944;9.418;2023-12-20T10:48:54;98923.76;;;4.01;57.44
59154;BME280;44935;48.944;9.418;2023-12-20T10:51:22;98923.23;;;3.65;57.78
59154;BME280;44935;48.944;9.418;2023-12-20T10:53:51;98920.08;;;3.97;58.66
59154;BME280;44935;48.944;9.418;2023-12-20T10:56:19;98922.38;;;4.12;58.45
59154;BME280;44935;48.944;9.418;2023-12-20T10:58:48;98918.36;;;3.67;57.20
59154;BME280;44935;48.944;9.418;2023-12-20T11:01:16;98919.78;;;4.32;55.77
59154;BME280;44935;48.944;9.418;2023-12-20T11:03:48;98921.17;;;4.15;56.42
59154;BME280;44935;48.944;9.418;2023-12-20T11:06:26;98918.13;;;4.55;55.37
59154;BME280;44935;48.944;9.418;2023-12-20T11:09:00;98912.06;;;4.37;54.78
59154;BME280;44935;48.944;9.418;2023-12-20T11:11:32;98911.78;;;4.33;55.87
59154;BME280;44935;48.944;9.418;2023-12-20T11:14:03;98903.10;;;3.49;55.52
59154;BME280;44935;48.944;9.418;2023-12-20T11:16:31;98900.85;;;4.02;55.83
59154;BME280;44935;48.944;9.418;2023-12-20T11:19:04;98904.43;;;3.95;55.00
59154;BME280;44935;48.944;9.418;2023-12-20T11:21:31;98901.54;;;3.84;55.74
59154;BME280;44935;48.944;9.418;2023-12-20T11:23:59;98893.87;;;3.68;55.72
59154;BME280;44935;48.944;9.418;2023-12-20T11:26:27;98888.83;;;4.17;55.75
59154;BME280;44935;48.944;9.418;2023-12-20T11:28:54;98891.82;;;3.70;57.18
59154;BME280;44935;48.944;9.418;2023-12-20T11:31:55;98898.33;;;4.01;55.74
59154;BME280;44935;48.944;9.418;2023-12-20T11:34:22;98898.51;;;4.15;56.22
59154;BME280;44935;48.944;9.418;2023-12-20T11:36:57;98903.22;;;4.35;55.53
59154;BME280;44935;48.944;9.418;2023-12-20T11:39:25;98910.92;;;4.48;54.62
59154;BME280;44935;48.944;9.418;2023-12-20T11:41:55;98917.49;;;4.82;54.25
59154;BME280;44935;48.944;9.418;2023-12-20T11:44:22;98918.25;;;3.98;54.60
59154;BME280;44935;48.944;9.418;2023-12-20T11:46:49;98919.18;;;4.15;54.21
59154;BME280;44935;48.944;9.418;2023-12-20T11:49:16;98922.90;;;3.52;55.25
59154;BME280;44935;48.944;9.418;2023-12-20T11:51:42;98913.75;;;3.25;56.05
59154;BME280;44935;48.944;9.418;2023-12-20T11:54:10;98917.35;;;3.32;56.20
59154;BME280;44935;48.944;9.418;2023-12-20T11:56:37;98918.16;;;3.96;55.89
59154;BME280;44935;48.944;9.418;2023-12-20T11:59:05;98916.11;;;3.46;55.74
59154;BME280;44935;48.944;9.418;2023-12-20T12:01:34;98907.69;;;3.56;54.26
59154;BME280;44935;48.944;9.418;2023-12-20T12:04:03;98909.63;;;4.01;53.62
59154;BME280;44935;48.944;9.418;2023-12-20T12:06:29;98892.13;;;3.55;54.11
59154;BME280;44935;48.944;9.418;2023-12-20T12:08:57;98890.60;;;3.69;54.91
59154;BME280;44935;48.944;9.418;2023-12-20T12:11:24;98886.29;;;3.35;56.11
59154;BME280;44935;48.944;9.418;2023-12-20T12:13:51;98877.63;;;3.43;55.87
59154;BME280;44935;48.944;9.418;2023-12-20T12:16:18;98874.17;;;3.06;55.51
59154;BME280;44935;48.944;9.418;2023-12-20T12:18:54;98875.88;;;3.81;55.85
59154;BME280;44935;48.944;9.418;2023-12-20T12:21:21;98877.30;;;3.46;56.01
59154;BME280;44935;48.944;9.418;2023-12-20T12:23:48;98873.65;;;4.09;54.19
59154;BME280;44935;48.944;9.418;2023-12-20T12:26:15;98867.23;;;4.16;54.74
59154;BME280;44935;48.944;9.418;2023-12-20T12:28:42;98865.69;;;3.69;54.71
59154;BME280;44935;48.944;9.418;2023-12-20T12:31:13;98865.97;;;3.48;55.81
59154;BME280;44935;48.944;9.418;2023-12-20T12:33:40;98870.34;;;4.04;54.10
59154;BME280;44935;48.944;9.418;2023-12-20T12:36:07;98871.22;;;4.32;54.07
59154;BME280;44935;48.944;9.418;2023-12-20T12:38:34;98872.98;;;3.69;55.63
59154;BME280;44935;48.944;9.418;2023-12-20T12:41:01;98871.93;;;4.64;52.92
59154;BME280;44935;48.944;9.418;2023-12-20T12:43:28;98872.62;;;4.34;54.23
59154;BME280;44935;48.944;9.418;2023-12-20T12:45:55;98867.32;;;4.32;52.35
59154;BME280;44935;48.944;9.418;2023-12-20T12:48:22;98865.89;;;4.57;54.02
59154;BME280;44935;48.944;9.418;2023-12-20T12:50:49;98862.90;;;4.42;52.77
59154;BME280;44935;48.944;9.418;2023-12-20T12:53:16;98864.16;;;4.66;52.38
59154;BME280;44935;48.944;9.418;2023-12-20T12:55:43;98870.84;;;4.64;53.13
59154;BME280;44935;48.944;9.418;2023-12-20T12:58:09;98872.23;;;4.58;52.76
59154;BME280;44935;48.944;9.418;2023-12-20T13:00:37;98875.74;;;4.41;53.47
59154;BME280;44935;48.944;9.418;2023-12-20T13:03:04;98870.84;;;3.79;54.54
59154;BME280;44935;48.944;9.418;2023-12-20T13:05:31;98870.58;;;4.38;54.17
59154;BME280;44935;48.944;9.418;2023-12-20T13:07:57;98873.30;;;4.57;53.64
59154;BME280;44935;48.944;9.418;2023-12-20T13:10:24;98869.56;;;4.20;53.93